sensor_id;sensor_type;location;lat;lon;timestamp;pressure;altitude;pressure_sealevel;temperature;humidity
40794;BME280;26502;51.886;15.604;2023-04-07T00:01:42;101051.42;;;1.33;52.79
40794;BME280;26502;51.886;15.604;2023-04-07T00:06:49;101051.70;;;1.28;53.02
40794;BME280;26502;51.886;15.604;2023-04-07T00:11:55;101046.40;;;1.24;53.20
40794;BME280;26502;51.886;15.604;2023-04-07T00:17:02;101040.61;;;1.23;53.40
40794;BME280;26502;51.886;15.604;2023-04-07T00:22:08;101036.92;;;1.21;53.35
40794;BME280;26502;51.886;15.604;2023-04-07T00:27:14;101038.89;;;1.24;53.58
40794;BME280;26502;51.886;15.604;2023-04-07T00:32:21;101036.55;;;1.34;53.67
40794;BME280;26502;51.886;15.604;2023-04-07T00:37:27;101033.45;;;1.39;53.73
40794;BME280;26502;51.886;15.604;2023-04-07T00:42:33;101027.94;;;1.46;54.05
40794;BME280;26502;51.886;15.604;2023-04-07T00:47:40;101026.16;;;1.62;54.19
40794;BME280;26502;51.886;15.604;2023-04-07T00:52:47;101020.02;;;1.78;54.25
40794;BME280;26502;51.886;15.604;2023-04-07T00:57:53;101015.59;;;1.92;54.22
40794;BME280;26502;51.886;15.604;2023-04-07T01:03:08;101015.46;;;1.99;54.38
40794;BME280;26502;51.886;15.604;2023-04-07T01:08:19;101011.46;;;2.03;54.38
40794;BME280;26502;51.886;15.604;2023-04-07T01:13:29;101012.16;;;2.02;54.58
40794;BME280;26502;51.886;15.604;2023-04-07T01:18:50;101010.46;;;2.09;54.68
40794;BME280;26502;51.886;15.604;2023-04-07T01:24:10;101007.02;;;2.16;54.86
40794;BME280;26502;51.886;15.604;2023-04-07T01:29:38;101006.84;;;2.18;54.93
40794;BME280;26502;51.886;15.604;2023-04-07T01:34:53;101007.39;;;2.20;55.14
40794;BME280;26502;51.886;15.604;2023-04-07T01:40:00;101002.16;;;2.25;55.39
40794;BME280;26502;51.886;15.604;2023-04-07T01:45:08;100999.90;;;2.28;55.60
40794;BME280;26502;51.886;15.604;2023-04-07T01:50:15;100997.30;;;2.30;55.68
40794;BME280;26502;51.886;15.604;2023-04-07T01:55:22;101001.30;;;2.27;55.85
40794;BME280;26502;51.886;15.604;2023-04-07T02:00:39;100997.28;;;2.29;55.89
40794;BME280;26502;51.886;15.604;2023-04-07T02:05:51;100996.77;;;2.32;56.12
40794;BME280;26502;51.886;15.604;2023-04-07T02:11:01;100993.83;;;2.37;56.31
40794;BME280;26502;51.886;15.604;2023-04-07T02:16:11;100990.71;;;2.43;56.53
40794;BME280;26502;51.886;15.604;2023-04-07T02:21:17;100992.33;;;2.49;56.50
40794;BME280;26502;51.886;15.604;2023-04-07T02:26:23;100994.27;;;2.53;56.57
40794;BME280;26502;51.886;15.604;2023-04-07T02:31:30;100987.09;;;2.54;56.67
40794;BME280;26502;51.886;15.604;2023-04-07T02:36:38;100986.45;;;2.63;56.90
40794;BME280;26502;51.886;15.604;2023-04-07T02:41:45;100985.61;;;2.72;56.98
40794;BME280;26502;51.886;15.604;2023-04-07T02:46:51;100979.49;;;2.77;57.06
40794;BME280;26502;51.886;15.604;2023-04-07T02:51:57;100975.65;;;2.84;57.22
40794;BME280;26502;51.886;15.604;2023-04-07T02:57:03;100971.12;;;2.91;57.25
40794;BME280;26502;51.886;15.604;2023-04-07T03:02:10;100965.17;;;2.92;57.42
40794;BME280;26502;51.886;15.604;2023-04-07T03:07:16;100961.67;;;2.99;57.55
40794;BME280;26502;51.886;15.604;2023-04-07T03:12:23;100955.73;;;3.03;57.53
40794;BME280;26502;51.886;15.604;2023-04-07T03:17:29;100956.45;;;3.12;57.60
40794;BME280;26502;51.886;15.604;2023-04-07T03:22:35;100946.29;;;3.19;57.74
40794;BME280;26502;51.886;15.604;2023-04-07T03:27:43;100947.55;;;3.28;57.85
40794;BME280;26502;51.886;15.604;2023-04-07T03:32:51;100946.48;;;3.30;57.91
40794;BME280;26502;51.886;15.604;2023-04-07T03:37:58;100942.09;;;3.33;58.04
40794;BME280;26502;51.886;15.604;2023-04-07T03:43:04;100941.76;;;3.36;57.94
40794;BME280;26502;51.886;15.604;2023-04-07T03:48:16;100938.06;;;3.38;57.74
40794;BME280;26502;51.886;15.604;2023-04-07T03:53:30;100932.64;;;3.43;57.74
40794;BME280;26502;51.886;15.604;2023-04-07T03:58:37;100936.84;;;3.40;57.85
40794;BME280;26502;51.886;15.604;2023-04-07T04:03:49;100935.80;;;3.42;57.88
40794;BME280;26502;51.886;15.604;2023-04-07T04:09:00;100934.90;;;3.35;58.08
40794;BME280;26502;51.886;15.604;2023-04-07T04:14:08;100935.42;;;3.33;58.48
40794;BME280;26502;51.886;15.604;2023-04-07T04:19:15;100936.66;;;3.39;58.49
40794;BME280;26502;51.886;15.604;2023-04-07T04:24:22;100938.27;;;3.47;58.48
40794;BME280;26502;51.886;15.604;2023-04-07T04:29:31;100942.82;;;3.58;58.59
40794;BME280;26502;51.886;15.604;2023-04-07T04:34:39;100940.02;;;3.64;58.48
40794;BME280;26502;51.886;15.604;2023-04-07T04:39:47;100938.09;;;3.57;58.27
40794;BME280;26502;51.886;15.604;2023-04-07T04:44:55;100932.11;;;3.61;58.21
40794;BME280;26502;51.886;15.604;2023-04-07T04:50:03;100934.40;;;3.61;58.34
40794;BME280;26502;51.886;15.604;2023-04-07T04:55:12;100930.89;;;3.64;58.47
40794;BME280;26502;51.886;15.604;2023-04-07T05:00:21;100930.54;;;3.67;58.61
40794;BME280;26502;51.886;15.604;2023-04-07T05:05:31;100930.89;;;3.70;58.55
40794;BME280;26502;51.886;15.604;2023-04-07T05:10:40;100927.55;;;3.63;58.54
40794;BME280;26502;51.886;15.604;2023-04-07T05:15:50;100919.46;;;3.49;58.74
40794;BME280;26502;51.886;15.604;2023-04-07T05:20:56;100919.63;;;3.49;59.11
40794;BME280;26502;51.886;15.604;2023-04-07T05:26:04;100920.70;;;3.63;59.40
40794;BME280;26502;51.886;15.604;2023-04-07T05:31:11;100924.02;;;3.77;59.57
40794;BME280;26502;51.886;15.604;2023-04-07T05:36:17;100919.63;;;3.88;59.39
40794;BME280;26502;51.886;15.604;2023-04-07T05:41:24;100925.27;;;3.86;59.41
40794;BME280;26502;51.886;15.604;2023-04-07T05:46:30;100931.21;;;4.03;59.65
40794;BME280;26502;51.886;15.604;2023-04-07T05:51:36;100925.73;;;4.16;59.58
40794;BME280;26502;51.886;15.604;2023-04-07T05:56:47;100929.75;;;4.27;59.60
40794;BME280;26502;51.886;15.604;2023-04-07T06:01:54;100936.96;;;4.31;59.55
40794;BME280;26502;51.886;15.604;2023-04-07T06:07:01;100934.84;;;4.34;59.25
40794;BME280;26502;51.886;15.604;2023-04-07T06:12:08;100931.48;;;4.40;59.42
40794;BME280;26502;51.886;15.604;2023-04-07T06:17:15;100931.80;;;4.48;59.19
40794;BME280;26502;51.886;15.604;2023-04-07T06:22:25;100937.41;;;4.53;59.05
40794;BME280;26502;51.886;15.604;2023-04-07T06:27:31;100934.23;;;4.56;58.65
40794;BME280;26502;51.886;15.604;2023-04-07T06:32:37;100939.68;;;4.58;58.70
40794;BME280;26502;51.886;15.604;2023-04-07T06:37:44;100937.54;;;4.65;58.44
40794;BME280;26502;51.886;15.604;2023-04-07T06:42:50;100935.76;;;4.71;58.36
40794;BME280;26502;51.886;15.604;2023-04-07T06:48:06;100936.11;;;4.71;58.09
40794;BME280;26502;51.886;15.604;2023-04-07T06:53:14;100939.10;;;4.72;58.09
40794;BME280;26502;51.886;15.604;2023-04-07T06:58:22;100938.94;;;4.70;58.20
40794;BME280;26502;51.886;15.604;2023-04-07T07:03:29;100938.07;;;4.65;58.26
40794;BME280;26502;51.886;15.604;2023-04-07T07:08:35;100943.36;;;4.60;58.54
40794;BME280;26502;51.886;15.604;2023-04-07T07:13:42;100940.38;;;4.60;58.96
40794;BME280;26502;51.886;15.604;2023-04-07T07:18:48;100937.73;;;4.62;59.34
40794;BME280;26502;51.886;15.604;2023-04-07T07:23:55;100952.67;;;4.63;59.47
40794;BME280;26502;51.886;15.604;2023-04-07T07:29:02;100959.71;;;4.63;59.74
40794;BME280;26502;51.886;15.604;2023-04-07T07:34:08;100958.48;;;4.67;59.83
40794;BME280;26502;51.886;15.604;2023-04-07T07:39:15;100964.60;;;4.73;59.91
40794;BME280;26502;51.886;15.604;2023-04-07T07:44:20;100966.34;;;4.80;60.12
40794;BME280;26502;51.886;15.604;2023-04-07T07:49:27;100974.58;;;4.88;60.33
40794;BME280;26502;51.886;15.604;2023-04-07T07:54:33;100977.38;;;4.91;60.41
40794;BME280;26502;51.886;15.604;2023-04-07T07:59:39;100976.16;;;4.90;60.53
40794;BME280;26502;51.886;15.604;2023-04-07T08:04:46;100976.88;;;4.85;60.45
40794;BME280;26502;51.886;15.604;2023-04-07T08:09:53;100971.61;;;4.83;60.58
40794;BME280;26502;51.886;15.604;2023-04-07T08:14:59;100970.89;;;4.87;60.53
40794;BME280;26502;51.886;15.604;2023-04-07T08:20:07;100970.06;;;4.75;60.26
40794;BME280;26502;51.886;15.604;2023-04-07T08:25:14;100967.39;;;4.82;60.58
40794;BME280;26502;51.886;15.604;2023-04-07T08:30:20;100969.61;;;4.97;60.70
40794;BME280;26502;51.886;15.604;2023-04-07T08:35:26;100970.86;;;4.94;60.85
40794;BME280;26502;51.886;15.604;2023-04-07T08:40:34;100969.10;;;4.95;61.19
40794;BME280;26502;51.886;15.604;2023-04-07T08:45:40;100966.09;;;4.99;61.42
40794;BME280;26502;51.886;15.604;2023-04-07T08:50:49;100973.99;;;5.02;61.73
40794;BME280;26502;51.886;15.604;2023-04-07T08:55:56;100973.63;;;5.02;61.81
40794;BME280;26502;51.886;15.604;2023-04-07T09:01:05;100967.83;;;5.00;62.08
40794;BME280;26502;51.886;15.604;2023-04-07T09:06:12;100966.45;;;4.97;62.09
40794;BME280;26502;51.886;15.604;2023-04-07T09:11:18;100960.52;;;4.85;62.28
40794;BME280;26502;51.886;15.604;2023-04-07T09:16:25;100960.14;;;4.90;62.60
40794;BME280;26502;51.886;15.604;2023-04-07T09:21:47;100954.85;;;4.95;62.57
40794;BME280;26502;51.886;15.604;2023-04-07T09:26:52;100958.48;;;5.01;62.75
40794;BME280;26502;51.886;15.604;2023-04-07T09:32:13;100954.95;;;5.05;62.63
40794;BME280;26502;51.886;15.604;2023-04-07T09:37:39;100953.15;;;5.13;62.97
40794;BME280;26502;51.886;15.604;2023-04-07T09:42:47;100955.94;;;5.18;62.83
40794;BME280;26502;51.886;15.604;2023-04-07T09:47:53;100956.25;;;5.25;62.77
40794;BME280;26502;51.886;15.604;2023-04-07T09:52:59;100955.76;;;5.22;62.70
40794;BME280;26502;51.886;15.604;2023-04-07T09:58:06;100960.02;;;5.14;62.57
40794;BME280;26502;51.886;15.604;2023-04-07T10:03:12;100965.83;;;5.12;62.77
40794;BME280;26502;51.886;15.604;2023-04-07T10:08:20;100967.95;;;5.13;62.80
40794;BME280;26502;51.886;15.604;2023-04-07T10:13:27;100968.30;;;5.12;62.79
40794;BME280;26502;51.886;15.604;2023-04-07T10:18:35;100969.21;;;5.07;62.80
40794;BME280;26502;51.886;15.604;2023-04-07T10:23:50;100965.70;;;5.04;62.92
40794;BME280;26502;51.886;15.604;2023-04-07T10:29:01;100965.67;;;5.10;62.93
40794;BME280;26502;51.886;15.604;2023-04-07T10:34:08;100967.60;;;5.12;63.17
40794;BME280;26502;51.886;15.604;2023-04-07T10:39:21;100972.85;;;5.18;63.24
40794;BME280;26502;51.886;15.604;2023-04-07T10:44:47;100973.36;;;5.21;63.31
40794;BME280;26502;51.886;15.604;2023-04-07T10:50:16;100974.92;;;5.25;63.42
40794;BME280;26502;51.886;15.604;2023-04-07T10:55:34;100975.98;;;5.26;63.32
40794;BME280;26502;51.886;15.604;2023-04-07T11:00:41;100975.67;;;5.17;63.24
40794;BME280;26502;51.886;15.604;2023-04-07T11:05:48;100974.95;;;5.22;63.18
40794;BME280;26502;51.886;15.604;2023-04-07T11:10:54;100976.48;;;5.29;63.27
40794;BME280;26502;51.886;15.604;2023-04-07T11:16:00;100971.95;;;5.22;63.08
40794;BME280;26502;51.886;15.604;2023-04-07T11:21:06;100972.11;;;5.23;63.34
40794;BME280;26502;51.886;15.604;2023-04-07T11:26:14;100972.10;;;5.26;63.53
40794;BME280;26502;51.886;15.604;2023-04-07T11:31:23;100974.60;;;5.20;63.75
40794;BME280;26502;51.886;15.604;2023-04-07T11:36:32;100970.36;;;5.22;64.12
40794;BME280;26502;51.886;15.604;2023-04-07T11:41:46;100968.59;;;5.24;64.28
40794;BME280;26502;51.886;15.604;2023-04-07T11:46:56;100960.80;;;5.29;64.48
40794;BME280;26502;51.886;15.604;2023-04-07T11:52:03;100958.38;;;5.23;64.34
40794;BME280;26502;51.886;15.604;2023-04-07T11:57:10;100955.76;;;5.20;64.85
40794;BME280;26502;51.886;15.604;2023-04-07T12:02:33;100958.06;;;5.17;64.90
40794;BME280;26502;51.886;15.604;2023-04-07T12:07:50;100961.62;;;5.10;65.26
40794;BME280;26502;51.886;15.604;2023-04-07T12:13:07;100952.43;;;5.17;65.32
40794;BME280;26502;51.886;15.604;2023-04-07T12:18:16;100958.23;;;5.15;65.82
40794;BME280;26502;51.886;15.604;2023-04-07T12:23:23;100951.99;;;5.31;66.20
40794;BME280;26502;51.886;15.604;2023-04-07T12:28:30;100946.83;;;5.40;66.26
40794;BME280;26502;51.886;15.604;2023-04-07T12:33:36;100947.00;;;5.41;66.52
40794;BME280;26502;51.886;15.604;2023-04-07T12:38:42;100943.55;;;5.55;66.54
40794;BME280;26502;51.886;15.604;2023-04-07T12:43:49;100940.83;;;5.64;66.64
40794;BME280;26502;51.886;15.604;2023-04-07T12:48:55;100938.45;;;5.76;66.67
40794;BME280;26502;51.886;15.604;2023-04-07T12:54:02;100942.08;;;5.84;66.77
40794;BME280;26502;51.886;15.604;2023-04-07T12:59:08;100949.69;;;6.05;67.02
40794;BME280;26502;51.886;15.604;2023-04-07T13:04:15;100945.45;;;6.06;67.09
40794;BME280;26502;51.886;15.604;2023-04-07T13:09:21;100946.39;;;6.16;67.00
40794;BME280;26502;51.886;15.604;2023-04-07T13:14:27;100946.15;;;6.05;66.68
40794;BME280;26502;51.886;15.604;2023-04-07T13:19:34;100938.02;;;5.83;66.92
40794;BME280;26502;51.886;15.604;2023-04-07T13:24:40;100935.14;;;5.92;67.39
40794;BME280;26502;51.886;15.604;2023-04-07T13:29:47;100936.55;;;5.92;67.38
40794;BME280;26502;51.886;15.604;2023-04-07T13:34:53;100931.66;;;5.65;67.25
40794;BME280;26502;51.886;15.604;2023-04-07T13:40:00;100930.86;;;5.54;67.58
40794;BME280;26502;51.886;15.604;2023-04-07T13:45:07;100928.95;;;5.52;67.81
40794;BME280;26502;51.886;15.604;2023-04-07T13:50:14;100926.23;;;5.62;68.05
40794;BME280;26502;51.886;15.604;2023-04-07T13:55:20;100922.10;;;5.50;67.77
40794;BME280;26502;51.886;15.604;2023-04-07T14:00:27;100919.75;;;5.34;68.19
40794;BME280;26502;51.886;15.604;2023-04-07T14:05:33;100914.04;;;5.44;68.65
40794;BME280;26502;51.886;15.604;2023-04-07T14:10:39;100913.61;;;5.54;68.58
40794;BME280;26502;51.886;15.604;2023-04-07T14:15:46;100910.00;;;5.42;68.71
40794;BME280;26502;51.886;15.604;2023-04-07T14:20:52;100910.25;;;5.56;68.89
40794;BME280;26502;51.886;15.604;2023-04-07T14:25:59;100911.70;;;5.72;69.20
40794;BME280;26502;51.886;15.604;2023-04-07T14:31:09;100916.39;;;5.80;69.13
40794;BME280;26502;51.886;15.604;2023-04-07T14:36:16;100916.72;;;5.81;69.09
40794;BME280;26502;51.886;15.604;2023-04-07T14:41:22;100918.19;;;5.95;69.21
40794;BME280;26502;51.886;15.604;2023-04-07T14:46:28;100917.02;;;5.87;68.96
40794;BME280;26502;51.886;15.604;2023-04-07T14:51:35;100916.62;;;5.74;69.26
40794;BME280;26502;51.886;15.604;2023-04-07T14:56:41;100918.23;;;5.70;69.39
40794;BME280;26502;51.886;15.604;2023-04-07T15:01:47;100916.89;;;5.62;69.48
40794;BME280;26502;51.886;15.604;2023-04-07T15:06:54;100914.21;;;5.66;69.76
40794;BME280;26502;51.886;15.604;2023-04-07T15:12:00;100910.28;;;5.72;69.75
40794;BME280;26502;51.886;15.604;2023-04-07T15:17:09;100911.05;;;5.66;69.85
40794;BME280;26502;51.886;15.604;2023-04-07T15:22:15;100909.25;;;5.70;70.19
40794;BME280;26502;51.886;15.604;2023-04-07T15:27:21;100905.90;;;5.70;70.11
40794;BME280;26502;51.886;15.604;2023-04-07T15:32:30;100910.86;;;5.66;70.14
40794;BME280;26502;51.886;15.604;2023-04-07T15:37:37;100909.91;;;5.75;70.56
40794;BME280;26502;51.886;15.604;2023-04-07T15:42:43;100911.15;;;5.73;70.56
40794;BME280;26502;51.886;15.604;2023-04-07T15:47:50;100910.55;;;5.80;70.65
40794;BME280;26502;51.886;15.604;2023-04-07T15:52:56;100912.96;;;5.69;70.51
40794;BME280;26502;51.886;15.604;2023-04-07T15:58:03;100910.30;;;5.71;70.87
40794;BME280;26502;51.886;15.604;2023-04-07T16:03:09;100912.23;;;5.91;71.02
40794;BME280;26502;51.886;15.604;2023-04-07T16:08:15;100915.96;;;6.10;70.91
40794;BME280;26502;51.886;15.604;2023-04-07T16:13:21;100919.16;;;6.06;70.66
40794;BME280;26502;51.886;15.604;2023-04-07T16:18:28;100924.86;;;6.01;70.78
40794;BME280;26502;51.886;15.604;2023-04-07T16:23:35;100925.17;;;6.04;70.88
40794;BME280;26502;51.886;15.604;2023-04-07T16:28:41;100927.15;;;6.01;70.90
40794;BME280;26502;51.886;15.604;2023-04-07T16:33:48;100930.02;;;5.93;70.94
40794;BME280;26502;51.886;15.604;2023-04-07T16:38:54;100934.83;;;5.88;71.06
40794;BME280;26502;51.886;15.604;2023-04-07T16:44:01;100933.83;;;5.79;71.25
40794;BME280;26502;51.886;15.604;2023-04-07T16:49:07;100939.98;;;5.84;71.43
40794;BME280;26502;51.886;15.604;2023-04-07T16:54:16;100941.05;;;5.81;71.45
40794;BME280;26502;51.886;15.604;2023-04-07T16:59:22;100943.08;;;5.70;71.35
40794;BME280;26502;51.886;15.604;2023-04-07T17:04:28;100943.57;;;5.74;71.75
40794;BME280;26502;51.886;15.604;2023-04-07T17:09:35;100947.41;;;5.78;71.83
40794;BME280;26502;51.886;15.604;2023-04-07T17:14:41;100946.89;;;5.77;71.81
40794;BME280;26502;51.886;15.604;2023-04-07T17:19:47;100952.38;;;5.76;71.94
40794;BME280;26502;51.886;15.604;2023-04-07T17:24:54;100953.80;;;5.73;72.09
40794;BME280;26502;51.886;15.604;2023-04-07T17:30:01;100956.70;;;5.62;71.96
40794;BME280;26502;51.886;15.604;2023-04-07T17:35:08;100959.44;;;5.50;72.35
40794;BME280;26502;51.886;15.604;2023-04-07T17:40:15;100960.69;;;5.49;72.52
40794;BME280;26502;51.886;15.604;2023-04-07T17:45:22;100962.84;;;5.43;72.46
40794;BME280;26502;51.886;15.604;2023-04-07T17:50:28;100964.30;;;5.36;72.69
40794;BME280;26502;51.886;15.604;2023-04-07T17:55:35;100962.70;;;5.34;72.87
40794;BME280;26502;51.886;15.604;2023-04-07T18:00:42;100965.56;;;5.28;72.99
40794;BME280;26502;51.886;15.604;2023-04-07T18:05:48;100965.73;;;5.30;73.18
40794;BME280;26502;51.886;15.604;2023-04-07T18:10:54;100972.53;;;5.40;73.45
40794;BME280;26502;51.886;15.604;2023-04-07T18:16:01;100973.08;;;5.40;73.15
40794;BME280;26502;51.886;15.604;2023-04-07T18:21:11;100977.67;;;5.36;73.39
40794;BME280;26502;51.886;15.604;2023-04-07T18:26:17;100972.41;;;5.34;73.51
40794;BME280;26502;51.886;15.604;2023-04-07T18:31:24;100980.69;;;5.34;73.62
40794;BME280;26502;51.886;15.604;2023-04-07T18:36:30;100989.52;;;5.28;73.65
40794;BME280;26502;51.886;15.604;2023-04-07T18:41:37;100991.28;;;5.29;74.01
40794;BME280;26502;51.886;15.604;2023-04-07T18:46:45;100997.80;;;5.29;73.93
40794;BME280;26502;51.886;15.604;2023-04-07T18:51:52;100993.74;;;5.30;74.00
40794;BME280;26502;51.886;15.604;2023-04-07T18:56:58;100993.09;;;5.21;74.09
40794;BME280;26502;51.886;15.604;2023-04-07T19:02:06;100994.10;;;5.27;74.20
40794;BME280;26502;51.886;15.604;2023-04-07T19:07:13;100990.93;;;5.28;74.13
40794;BME280;26502;51.886;15.604;2023-04-07T19:12:20;100997.13;;;5.21;74.09
40794;BME280;26502;51.886;15.604;2023-04-07T19:17:27;100994.17;;;5.14;74.18
40794;BME280;26502;51.886;15.604;2023-04-07T19:22:34;100991.71;;;5.14;74.57
40794;BME280;26502;51.886;15.604;2023-04-07T19:27:40;100994.51;;;5.19;74.73
40794;BME280;26502;51.886;15.604;2023-04-07T19:32:47;100995.19;;;5.21;74.83
40794;BME280;26502;51.886;15.604;2023-04-07T19:37:53;100995.54;;;5.22;74.74
40794;BME280;26502;51.886;15.604;2023-04-07T19:43:00;100999.77;;;5.22;74.82
40794;BME280;26502;51.886;15.604;2023-04-07T19:48:06;100995.55;;;5.20;74.89
40794;BME280;26502;51.886;15.604;2023-04-07T19:53:12;100998.91;;;5.19;74.94
40794;BME280;26502;51.886;15.604;2023-04-07T19:58:21;100994.86;;;5.18;75.00
40794;BME280;26502;51.886;15.604;2023-04-07T20:03:27;100995.57;;;5.18;75.24
40794;BME280;26502;51.886;15.604;2023-04-07T20:08:33;100998.02;;;5.18;75.34
40794;BME280;26502;51.886;15.604;2023-04-07T20:13:39;101003.29;;;5.23;75.41
40794;BME280;26502;51.886;15.604;2023-04-07T20:18:46;101001.34;;;5.23;75.43
40794;BME280;26502;51.886;15.604;2023-04-07T20:23:54;101001.86;;;5.25;75.60
40794;BME280;26502;51.886;15.604;2023-04-07T20:29:00;101000.99;;;5.24;75.64
40794;BME280;26502;51.886;15.604;2023-04-07T20:34:07;100997.84;;;5.22;75.74
40794;BME280;26502;51.886;15.604;2023-04-07T20:39:14;100995.01;;;5.24;75.84
40794;BME280;26502;51.886;15.604;2023-04-07T20:44:21;100997.45;;;5.26;75.88
40794;BME280;26502;51.886;15.604;2023-04-07T20:49:27;100995.70;;;5.25;75.86
40794;BME280;26502;51.886;15.604;2023-04-07T20:54:33;100989.89;;;5.23;75.84
40794;BME280;26502;51.886;15.604;2023-04-07T20:59:40;100996.06;;;5.23;75.95
40794;BME280;26502;51.886;15.604;2023-04-07T21:04:46;100995.36;;;5.23;76.03
40794;BME280;26502;51.886;15.604;2023-04-07T21:10:10;100999.04;;;5.28;76.30
40794;BME280;26502;51.886;15.604;2023-04-07T21:15:18;100996.52;;;5.37;76.24
40794;BME280;26502;51.886;15.604;2023-04-07T21:20:24;100994.73;;;5.43;76.26
40794;BME280;26502;51.886;15.604;2023-04-07T21:25:30;100992.94;;;5.45;76.11
40794;BME280;26502;51.886;15.604;2023-04-07T21:30:40;100987.12;;;5.47;76.25
40794;BME280;26502;51.886;15.604;2023-04-07T21:35:46;100986.42;;;5.45;76.29
40794;BME280;26502;51.886;15.604;2023-04-07T21:40:52;100983.80;;;5.43;76.33
40794;BME280;26502;51.886;15.604;2023-04-07T21:46:00;100978.01;;;5.40;76.35
40794;BME280;26502;51.886;15.604;2023-04-07T21:51:07;100970.45;;;5.37;76.34
40794;BME280;26502;51.886;15.604;2023-04-07T21:56:12;100970.09;;;5.39;76.73
40794;BME280;26502;51.886;15.604;2023-04-07T22:01:19;100964.41;;;5.45;76.79
40794;BME280;26502;51.886;15.604;2023-04-07T22:06:25;100963.00;;;5.45;76.85
40794;BME280;26502;51.886;15.604;2023-04-07T22:11:31;100964.92;;;5.48;76.86
40794;BME280;26502;51.886;15.604;2023-04-07T22:16:38;100964.16;;;5.54;76.90
40794;BME280;26502;51.886;15.604;2023-04-07T22:21:44;100967.82;;;5.62;76.98
40794;BME280;26502;51.886;15.604;2023-04-07T22:26:51;100965.83;;;5.68;76.91
40794;BME280;26502;51.886;15.604;2023-04-07T22:31:58;100964.41;;;5.71;77.04
40794;BME280;26502;51.886;15.604;2023-04-07T22:37:05;100963.69;;;5.72;77.06
40794;BME280;26502;51.886;15.604;2023-04-07T22:42:11;100964.19;;;5.76;77.05
40794;BME280;26502;51.886;15.604;2023-04-07T22:47:18;100967.52;;;5.77;77.03
40794;BME280;26502;51.886;15.604;2023-04-07T22:52:25;100961.73;;;5.75;77.21
40794;BME280;26502;51.886;15.604;2023-04-07T22:57:31;100971.39;;;5.79;77.34
40794;BME280;26502;51.886;15.604;2023-04-07T23:02:36;100980.51;;;5.84;77.44
40794;BME280;26502;51.886;15.604;2023-04-07T23:07:43;100978.16;;;5.91;77.46
40794;BME280;26502;51.886;15.604;2023-04-07T23:12:51;100976.20;;;5.96;77.61
40794;BME280;26502;51.886;15.604;2023-04-07T23:17:58;100981.64;;;5.97;77.55
40794;BME280;26502;51.886;15.604;2023-04-07T23:23:04;100983.38;;;6.03;77.64
40794;BME280;26502;51.886;15.604;2023-04-07T23:28:11;100976.13;;;6.06;77.84
40794;BME280;26502;51.886;15.604;2023-04-07T23:33:17;100978.05;;;6.08;77.90
40794;BME280;26502;51.886;15.604;2023-04-07T23:38:24;100975.38;;;6.10;78.05
40794;BME280;26502;51.886;15.604;2023-04-07T23:43:30;100974.66;;;6.11;78.00
40794;BME280;26502;51.886;15.604;2023-04-07T23:48:37;100974.47;;;6.13;78.02
40794;BME280;26502;51.886;15.604;2023-04-07T23:53:44;100977.09;;;6.15;78.00
40794;BME280;26502;51.886;15.604;2023-04-07T23:58:51;100980.58;;;6.18;78.07
